sensor_id;sensor_type;location;lat;lon;timestamp;P1;durP1;ratioP1;P2;durP2;ratioP2
68923;SDS011;55961;52.156;20.942;2023-04-25T00:01:39;16.58;;;10.77;;
68923;SDS011;55961;52.156;20.942;2023-04-25T00:04:05;17.33;;;11.13;;
68923;SDS011;55961;52.156;20.942;2023-04-25T00:06:32;16.63;;;10.55;;
68923;SDS011;55961;52.156;20.942;2023-04-25T00:09:01;18.85;;;10.60;;
68923;SDS011;55961;52.156;20.942;2023-04-25T00:11:33;18.60;;;11.68;;
68923;SDS011;55961;52.156;20.942;2023-04-25T00:13:59;18.00;;;11.20;;
68923;SDS011;55961;52.156;20.942;2023-04-25T00:16:27;17.20;;;11.33;;
68923;SDS011;55961;52.156;20.942;2023-04-25T00:18:54;18.75;;;11.05;;
68923;SDS011;55961;52.156;20.942;2023-04-25T00:21:21;15.95;;;11.27;;
68923;SDS011;55961;52.156;20.942;2023-04-25T00:23:49;14.48;;;10.38;;
68923;SDS011;55961;52.156;20.942;2023-04-25T00:26:15;19.75;;;11.73;;
68923;SDS011;55961;52.156;20.942;2023-04-25T00:28:41;16.30;;;11.27;;
68923;SDS011;55961;52.156;20.942;2023-04-25T00:31:07;18.25;;;11.20;;
68923;SDS011;55961;52.156;20.942;2023-04-25T00:33:33;18.90;;;10.97;;
68923;SDS011;55961;52.156;20.942;2023-04-25T00:35:59;18.40;;;11.47;;
68923;SDS011;55961;52.156;20.942;2023-04-25T00:38:25;16.77;;;11.18;;
68923;SDS011;55961;52.156;20.942;2023-04-25T00:40:51;17.75;;;11.43;;
68923;SDS011;55961;52.156;20.942;2023-04-25T00:43:18;16.73;;;11.15;;
68923;SDS011;55961;52.156;20.942;2023-04-25T00:45:44;16.37;;;11.00;;
68923;SDS011;55961;52.156;20.942;2023-04-25T00:48:16;17.77;;;11.32;;
68923;SDS011;55961;52.156;20.942;2023-04-25T00:50:45;16.42;;;11.50;;
68923;SDS011;55961;52.156;20.942;2023-04-25T00:53:19;16.60;;;11.55;;
68923;SDS011;55961;52.156;20.942;2023-04-25T00:55:47;18.13;;;11.25;;
68923;SDS011;55961;52.156;20.942;2023-04-25T00:58:16;16.57;;;11.37;;
68923;SDS011;55961;52.156;20.942;2023-04-25T01:00:43;17.98;;;11.20;;
68923;SDS011;55961;52.156;20.942;2023-04-25T01:03:11;16.98;;;11.02;;
68923;SDS011;55961;52.156;20.942;2023-04-25T01:05:37;17.38;;;10.98;;
68923;SDS011;55961;52.156;20.942;2023-04-25T01:08:02;17.17;;;11.20;;
68923;SDS011;55961;52.156;20.942;2023-04-25T01:10:29;16.23;;;10.95;;
68923;SDS011;55961;52.156;20.942;2023-04-25T01:12:55;17.05;;;11.07;;
68923;SDS011;55961;52.156;20.942;2023-04-25T01:15:21;17.63;;;10.02;;
68923;SDS011;55961;52.156;20.942;2023-04-25T01:17:46;15.43;;;10.57;;
68923;SDS011;55961;52.156;20.942;2023-04-25T01:20:14;15.13;;;9.65;;
68923;SDS011;55961;52.156;20.942;2023-04-25T01:22:41;16.92;;;10.05;;
68923;SDS011;55961;52.156;20.942;2023-04-25T01:25:08;16.50;;;9.65;;
68923;SDS011;55961;52.156;20.942;2023-04-25T01:27:35;18.73;;;10.07;;
68923;SDS011;55961;52.156;20.942;2023-04-25T01:30:02;15.52;;;9.45;;
68923;SDS011;55961;52.156;20.942;2023-04-25T01:32:29;14.10;;;9.32;;
68923;SDS011;55961;52.156;20.942;2023-04-25T01:35:07;15.07;;;8.95;;
68923;SDS011;55961;52.156;20.942;2023-04-25T01:37:38;15.13;;;8.80;;
68923;SDS011;55961;52.156;20.942;2023-04-25T01:40:04;15.60;;;9.33;;
68923;SDS011;55961;52.156;20.942;2023-04-25T01:42:32;14.57;;;8.50;;
68923;SDS011;55961;52.156;20.942;2023-04-25T01:44:59;13.60;;;8.68;;
68923;SDS011;55961;52.156;20.942;2023-04-25T01:47:25;15.38;;;8.65;;
68923;SDS011;55961;52.156;20.942;2023-04-25T01:49:52;14.18;;;8.70;;
68923;SDS011;55961;52.156;20.942;2023-04-25T01:52:17;15.07;;;9.03;;
68923;SDS011;55961;52.156;20.942;2023-04-25T01:54:43;13.70;;;8.05;;
68923;SDS011;55961;52.156;20.942;2023-04-25T01:57:11;14.40;;;8.20;;
68923;SDS011;55961;52.156;20.942;2023-04-25T01:59:37;15.60;;;8.38;;
68923;SDS011;55961;52.156;20.942;2023-04-25T02:02:03;13.10;;;7.40;;
68923;SDS011;55961;52.156;20.942;2023-04-25T02:04:30;15.90;;;7.68;;
68923;SDS011;55961;52.156;20.942;2023-04-25T02:06:56;13.80;;;7.82;;
68923;SDS011;55961;52.156;20.942;2023-04-25T02:09:22;12.77;;;7.35;;
68923;SDS011;55961;52.156;20.942;2023-04-25T02:11:48;14.05;;;7.45;;
68923;SDS011;55961;52.156;20.942;2023-04-25T02:14:15;13.93;;;7.43;;
68923;SDS011;55961;52.156;20.942;2023-04-25T02:16:40;13.93;;;6.95;;
68923;SDS011;55961;52.156;20.942;2023-04-25T02:19:09;12.30;;;7.28;;
68923;SDS011;55961;52.156;20.942;2023-04-25T02:21:35;11.10;;;6.85;;
68923;SDS011;55961;52.156;20.942;2023-04-25T02:24:02;13.57;;;7.05;;
68923;SDS011;55961;52.156;20.942;2023-04-25T02:26:28;10.50;;;6.40;;
68923;SDS011;55961;52.156;20.942;2023-04-25T02:28:58;13.35;;;7.47;;
68923;SDS011;55961;52.156;20.942;2023-04-25T02:31:24;12.25;;;6.72;;
68923;SDS011;55961;52.156;20.942;2023-04-25T02:33:51;11.55;;;7.00;;
68923;SDS011;55961;52.156;20.942;2023-04-25T02:36:17;11.23;;;6.37;;
68923;SDS011;55961;52.156;20.942;2023-04-25T02:38:43;11.48;;;7.10;;
68923;SDS011;55961;52.156;20.942;2023-04-25T02:41:08;12.02;;;7.00;;
68923;SDS011;55961;52.156;20.942;2023-04-25T02:43:35;13.57;;;7.20;;
68923;SDS011;55961;52.156;20.942;2023-04-25T02:46:00;13.17;;;7.10;;
68923;SDS011;55961;52.156;20.942;2023-04-25T02:48:26;11.45;;;6.72;;
68923;SDS011;55961;52.156;20.942;2023-04-25T02:50:53;13.35;;;7.15;;
68923;SDS011;55961;52.156;20.942;2023-04-25T02:53:19;11.35;;;7.25;;
68923;SDS011;55961;52.156;20.942;2023-04-25T02:55:45;14.37;;;8.17;;
68923;SDS011;55961;52.156;20.942;2023-04-25T02:58:11;13.15;;;7.22;;
68923;SDS011;55961;52.156;20.942;2023-04-25T03:00:37;13.45;;;7.07;;
68923;SDS011;55961;52.156;20.942;2023-04-25T03:03:03;12.55;;;7.20;;
68923;SDS011;55961;52.156;20.942;2023-04-25T03:05:29;13.00;;;7.17;;
68923;SDS011;55961;52.156;20.942;2023-04-25T03:07:55;12.90;;;7.35;;
68923;SDS011;55961;52.156;20.942;2023-04-25T03:10:21;12.43;;;6.78;;
68923;SDS011;55961;52.156;20.942;2023-04-25T03:12:47;12.10;;;7.10;;
68923;SDS011;55961;52.156;20.942;2023-04-25T03:15:12;11.95;;;7.20;;
68923;SDS011;55961;52.156;20.942;2023-04-25T03:17:39;11.90;;;6.88;;
68923;SDS011;55961;52.156;20.942;2023-04-25T03:20:04;11.83;;;7.20;;
68923;SDS011;55961;52.156;20.942;2023-04-25T03:22:33;13.57;;;7.18;;
68923;SDS011;55961;52.156;20.942;2023-04-25T03:24:59;14.10;;;6.85;;
68923;SDS011;55961;52.156;20.942;2023-04-25T03:27:25;13.75;;;6.90;;
68923;SDS011;55961;52.156;20.942;2023-04-25T03:29:51;11.50;;;7.10;;
68923;SDS011;55961;52.156;20.942;2023-04-25T03:32:17;10.13;;;6.05;;
68923;SDS011;55961;52.156;20.942;2023-04-25T03:34:43;11.90;;;6.55;;
68923;SDS011;55961;52.156;20.942;2023-04-25T03:37:09;12.60;;;6.43;;
68923;SDS011;55961;52.156;20.942;2023-04-25T03:39:34;12.57;;;6.70;;
68923;SDS011;55961;52.156;20.942;2023-04-25T03:42:01;12.65;;;5.85;;
68923;SDS011;55961;52.156;20.942;2023-04-25T03:44:28;17.50;;;6.80;;
68923;SDS011;55961;52.156;20.942;2023-04-25T03:46:54;10.03;;;5.93;;
68923;SDS011;55961;52.156;20.942;2023-04-25T03:49:19;12.13;;;6.82;;
68923;SDS011;55961;52.156;20.942;2023-04-25T03:51:46;13.55;;;5.88;;
68923;SDS011;55961;52.156;20.942;2023-04-25T03:54:11;13.13;;;5.70;;
68923;SDS011;55961;52.156;20.942;2023-04-25T03:56:37;10.00;;;5.17;;
68923;SDS011;55961;52.156;20.942;2023-04-25T03:59:03;9.50;;;4.55;;
68923;SDS011;55961;52.156;20.942;2023-04-25T04:01:29;8.55;;;4.93;;
68923;SDS011;55961;52.156;20.942;2023-04-25T04:03:55;8.63;;;5.03;;
68923;SDS011;55961;52.156;20.942;2023-04-25T04:06:21;9.68;;;5.15;;
68923;SDS011;55961;52.156;20.942;2023-04-25T04:08:47;9.52;;;5.28;;
68923;SDS011;55961;52.156;20.942;2023-04-25T04:11:13;7.83;;;4.40;;
68923;SDS011;55961;52.156;20.942;2023-04-25T04:13:39;7.68;;;4.10;;
68923;SDS011;55961;52.156;20.942;2023-04-25T04:16:05;7.68;;;4.03;;
68923;SDS011;55961;52.156;20.942;2023-04-25T04:18:31;9.20;;;5.00;;
68923;SDS011;55961;52.156;20.942;2023-04-25T04:20:58;9.47;;;5.20;;
68923;SDS011;55961;52.156;20.942;2023-04-25T04:23:24;8.70;;;4.93;;
68923;SDS011;55961;52.156;20.942;2023-04-25T04:25:52;9.70;;;5.00;;
68923;SDS011;55961;52.156;20.942;2023-04-25T04:28:19;9.57;;;5.35;;
68923;SDS011;55961;52.156;20.942;2023-04-25T04:30:46;10.32;;;6.45;;
68923;SDS011;55961;52.156;20.942;2023-04-25T04:33:12;9.43;;;5.27;;
68923;SDS011;55961;52.156;20.942;2023-04-25T04:35:39;9.05;;;5.43;;
68923;SDS011;55961;52.156;20.942;2023-04-25T04:38:04;12.25;;;6.60;;
68923;SDS011;55961;52.156;20.942;2023-04-25T04:40:30;10.38;;;6.22;;
68923;SDS011;55961;52.156;20.942;2023-04-25T04:42:57;10.87;;;6.30;;
68923;SDS011;55961;52.156;20.942;2023-04-25T04:45:23;8.95;;;5.35;;
68923;SDS011;55961;52.156;20.942;2023-04-25T04:47:49;14.65;;;8.35;;
68923;SDS011;55961;52.156;20.942;2023-04-25T04:50:15;12.68;;;8.23;;
68923;SDS011;55961;52.156;20.942;2023-04-25T04:52:41;12.83;;;7.67;;
68923;SDS011;55961;52.156;20.942;2023-04-25T04:55:08;13.32;;;7.85;;
68923;SDS011;55961;52.156;20.942;2023-04-25T04:57:34;12.07;;;8.00;;
68923;SDS011;55961;52.156;20.942;2023-04-25T05:00:00;10.52;;;6.25;;
68923;SDS011;55961;52.156;20.942;2023-04-25T05:02:26;13.90;;;8.48;;
68923;SDS011;55961;52.156;20.942;2023-04-25T05:04:52;11.93;;;7.30;;
68923;SDS011;55961;52.156;20.942;2023-04-25T05:07:18;14.55;;;8.40;;
68923;SDS011;55961;52.156;20.942;2023-04-25T05:09:44;12.38;;;8.25;;
68923;SDS011;55961;52.156;20.942;2023-04-25T05:12:10;13.37;;;9.13;;
68923;SDS011;55961;52.156;20.942;2023-04-25T05:14:36;13.07;;;8.88;;
68923;SDS011;55961;52.156;20.942;2023-04-25T05:17:02;13.43;;;7.63;;
68923;SDS011;55961;52.156;20.942;2023-04-25T05:19:30;12.77;;;7.57;;
68923;SDS011;55961;52.156;20.942;2023-04-25T05:21:57;13.50;;;7.30;;
68923;SDS011;55961;52.156;20.942;2023-04-25T05:24:23;12.52;;;7.32;;
68923;SDS011;55961;52.156;20.942;2023-04-25T05:26:48;11.18;;;7.28;;
68923;SDS011;55961;52.156;20.942;2023-04-25T05:29:14;9.38;;;5.70;;
68923;SDS011;55961;52.156;20.942;2023-04-25T05:31:40;11.47;;;7.63;;
68923;SDS011;55961;52.156;20.942;2023-04-25T05:34:06;11.90;;;6.40;;
68923;SDS011;55961;52.156;20.942;2023-04-25T05:36:32;11.02;;;6.68;;
68923;SDS011;55961;52.156;20.942;2023-04-25T05:38:58;11.50;;;6.77;;
68923;SDS011;55961;52.156;20.942;2023-04-25T05:41:24;12.13;;;6.80;;
68923;SDS011;55961;52.156;20.942;2023-04-25T05:43:50;10.13;;;6.50;;
68923;SDS011;55961;52.156;20.942;2023-04-25T05:46:15;15.93;;;10.00;;
68923;SDS011;55961;52.156;20.942;2023-04-25T05:48:42;14.70;;;9.05;;
68923;SDS011;55961;52.156;20.942;2023-04-25T05:51:08;14.02;;;9.25;;
68923;SDS011;55961;52.156;20.942;2023-04-25T05:53:35;16.23;;;11.68;;
68923;SDS011;55961;52.156;20.942;2023-04-25T05:56:01;19.77;;;14.47;;
68923;SDS011;55961;52.156;20.942;2023-04-25T05:58:27;14.13;;;10.27;;
68923;SDS011;55961;52.156;20.942;2023-04-25T06:00:54;10.27;;;6.65;;
68923;SDS011;55961;52.156;20.942;2023-04-25T06:03:20;13.60;;;8.48;;
68923;SDS011;55961;52.156;20.942;2023-04-25T06:05:46;9.50;;;6.20;;
68923;SDS011;55961;52.156;20.942;2023-04-25T06:08:12;10.70;;;7.13;;
68923;SDS011;55961;52.156;20.942;2023-04-25T06:10:38;11.23;;;7.53;;
68923;SDS011;55961;52.156;20.942;2023-04-25T06:13:04;15.35;;;7.88;;
68923;SDS011;55961;52.156;20.942;2023-04-25T06:15:30;11.90;;;6.30;;
68923;SDS011;55961;52.156;20.942;2023-04-25T06:17:58;12.60;;;7.30;;
68923;SDS011;55961;52.156;20.942;2023-04-25T06:20:24;12.27;;;8.43;;
68923;SDS011;55961;52.156;20.942;2023-04-25T06:22:50;13.55;;;7.60;;
68923;SDS011;55961;52.156;20.942;2023-04-25T06:25:17;13.75;;;8.68;;
68923;SDS011;55961;52.156;20.942;2023-04-25T06:27:43;12.97;;;8.23;;
68923;SDS011;55961;52.156;20.942;2023-04-25T06:30:09;13.02;;;7.72;;
68923;SDS011;55961;52.156;20.942;2023-04-25T06:32:36;9.88;;;5.50;;
68923;SDS011;55961;52.156;20.942;2023-04-25T06:35:03;13.07;;;6.70;;
68923;SDS011;55961;52.156;20.942;2023-04-25T06:37:29;11.93;;;7.27;;
68923;SDS011;55961;52.156;20.942;2023-04-25T06:39:55;10.77;;;6.07;;
68923;SDS011;55961;52.156;20.942;2023-04-25T06:42:21;10.70;;;5.80;;
68923;SDS011;55961;52.156;20.942;2023-04-25T06:44:47;11.83;;;6.70;;
68923;SDS011;55961;52.156;20.942;2023-04-25T06:47:13;10.43;;;6.07;;
68923;SDS011;55961;52.156;20.942;2023-04-25T06:49:40;10.35;;;6.03;;
68923;SDS011;55961;52.156;20.942;2023-04-25T06:52:06;9.75;;;5.53;;
68923;SDS011;55961;52.156;20.942;2023-04-25T06:54:32;12.20;;;6.80;;
68923;SDS011;55961;52.156;20.942;2023-04-25T06:56:58;12.03;;;7.47;;
68923;SDS011;55961;52.156;20.942;2023-04-25T06:59:26;9.15;;;4.60;;
68923;SDS011;55961;52.156;20.942;2023-04-25T07:01:52;12.00;;;7.43;;
68923;SDS011;55961;52.156;20.942;2023-04-25T07:04:17;10.07;;;5.77;;
68923;SDS011;55961;52.156;20.942;2023-04-25T07:06:44;11.80;;;7.27;;
68923;SDS011;55961;52.156;20.942;2023-04-25T07:09:10;10.10;;;6.35;;
68923;SDS011;55961;52.156;20.942;2023-04-25T07:11:36;14.55;;;7.13;;
68923;SDS011;55961;52.156;20.942;2023-04-25T07:14:02;12.07;;;6.97;;
68923;SDS011;55961;52.156;20.942;2023-04-25T07:16:28;17.73;;;8.73;;
68923;SDS011;55961;52.156;20.942;2023-04-25T07:18:54;12.57;;;7.43;;
68923;SDS011;55961;52.156;20.942;2023-04-25T07:21:20;13.13;;;8.27;;
68923;SDS011;55961;52.156;20.942;2023-04-25T07:23:46;12.38;;;7.18;;
68923;SDS011;55961;52.156;20.942;2023-04-25T07:26:12;13.00;;;7.53;;
68923;SDS011;55961;52.156;20.942;2023-04-25T07:28:38;11.30;;;6.90;;
68923;SDS011;55961;52.156;20.942;2023-04-25T07:31:04;11.35;;;6.80;;
68923;SDS011;55961;52.156;20.942;2023-04-25T07:33:30;11.05;;;6.38;;
68923;SDS011;55961;52.156;20.942;2023-04-25T07:35:56;10.83;;;6.73;;
68923;SDS011;55961;52.156;20.942;2023-04-25T07:38:22;9.25;;;6.28;;
68923;SDS011;55961;52.156;20.942;2023-04-25T07:40:48;12.57;;;6.45;;
68923;SDS011;55961;52.156;20.942;2023-04-25T07:43:14;12.20;;;7.18;;
68923;SDS011;55961;52.156;20.942;2023-04-25T07:45:42;10.88;;;6.13;;
68923;SDS011;55961;52.156;20.942;2023-04-25T07:48:09;10.87;;;8.27;;
68923;SDS011;55961;52.156;20.942;2023-04-25T07:50:35;9.40;;;5.35;;
68923;SDS011;55961;52.156;20.942;2023-04-25T07:53:01;9.13;;;5.35;;
68923;SDS011;55961;52.156;20.942;2023-04-25T07:55:27;8.30;;;4.82;;
68923;SDS011;55961;52.156;20.942;2023-04-25T07:57:53;11.47;;;6.00;;
68923;SDS011;55961;52.156;20.942;2023-04-25T08:00:19;8.27;;;5.70;;
68923;SDS011;55961;52.156;20.942;2023-04-25T08:02:45;8.20;;;4.82;;
68923;SDS011;55961;52.156;20.942;2023-04-25T08:05:11;8.55;;;4.40;;
68923;SDS011;55961;52.156;20.942;2023-04-25T08:07:39;8.23;;;3.97;;
68923;SDS011;55961;52.156;20.942;2023-04-25T08:10:06;7.85;;;4.53;;
68923;SDS011;55961;52.156;20.942;2023-04-25T08:12:33;7.65;;;3.92;;
68923;SDS011;55961;52.156;20.942;2023-04-25T08:14:59;5.88;;;4.00;;
68923;SDS011;55961;52.156;20.942;2023-04-25T08:17:25;6.70;;;3.63;;
68923;SDS011;55961;52.156;20.942;2023-04-25T08:19:51;7.97;;;4.22;;
68923;SDS011;55961;52.156;20.942;2023-04-25T08:22:16;8.10;;;4.03;;
68923;SDS011;55961;52.156;20.942;2023-04-25T08:24:42;7.05;;;4.20;;
68923;SDS011;55961;52.156;20.942;2023-04-25T08:27:08;8.27;;;4.43;;
68923;SDS011;55961;52.156;20.942;2023-04-25T08:29:35;7.57;;;3.80;;
68923;SDS011;55961;52.156;20.942;2023-04-25T08:32:01;8.67;;;3.70;;
68923;SDS011;55961;52.156;20.942;2023-04-25T08:34:27;7.53;;;4.60;;
68923;SDS011;55961;52.156;20.942;2023-04-25T08:36:52;6.78;;;4.57;;
68923;SDS011;55961;52.156;20.942;2023-04-25T08:39:18;10.35;;;5.47;;
68923;SDS011;55961;52.156;20.942;2023-04-25T08:41:46;8.20;;;4.53;;
68923;SDS011;55961;52.156;20.942;2023-04-25T08:44:13;6.80;;;4.37;;
68923;SDS011;55961;52.156;20.942;2023-04-25T08:46:40;6.15;;;4.00;;
68923;SDS011;55961;52.156;20.942;2023-04-25T08:49:07;7.82;;;4.00;;
68923;SDS011;55961;52.156;20.942;2023-04-25T08:51:34;6.78;;;4.50;;
68923;SDS011;55961;52.156;20.942;2023-04-25T08:54:13;7.57;;;4.05;;
68923;SDS011;55961;52.156;20.942;2023-04-25T08:56:47;6.17;;;3.83;;
68923;SDS011;55961;52.156;20.942;2023-04-25T08:59:13;7.65;;;3.97;;
68923;SDS011;55961;52.156;20.942;2023-04-25T09:01:40;7.93;;;4.85;;
68923;SDS011;55961;52.156;20.942;2023-04-25T09:04:06;7.38;;;4.32;;
68923;SDS011;55961;52.156;20.942;2023-04-25T09:06:32;6.05;;;3.65;;
68923;SDS011;55961;52.156;20.942;2023-04-25T09:09:03;6.23;;;4.00;;
68923;SDS011;55961;52.156;20.942;2023-04-25T09:11:30;7.90;;;4.43;;
68923;SDS011;55961;52.156;20.942;2023-04-25T09:14:16;7.60;;;5.20;;
68923;SDS011;55961;52.156;20.942;2023-04-25T09:19:23;7.95;;;4.30;;
68923;SDS011;55961;52.156;20.942;2023-04-25T09:21:50;6.83;;;4.50;;
68923;SDS011;55961;52.156;20.942;2023-04-25T09:27:01;7.90;;;4.13;;
68923;SDS011;55961;52.156;20.942;2023-04-25T09:29:35;7.00;;;4.28;;
68923;SDS011;55961;52.156;20.942;2023-04-25T09:34:48;7.93;;;4.60;;
68923;SDS011;55961;52.156;20.942;2023-04-25T09:37:26;6.97;;;4.38;;
68923;SDS011;55961;52.156;20.942;2023-04-25T09:39:54;7.43;;;4.78;;
68923;SDS011;55961;52.156;20.942;2023-04-25T09:42:26;7.28;;;4.32;;
68923;SDS011;55961;52.156;20.942;2023-04-25T09:44:54;7.75;;;4.82;;
68923;SDS011;55961;52.156;20.942;2023-04-25T09:47:22;7.47;;;4.67;;
68923;SDS011;55961;52.156;20.942;2023-04-25T09:49:50;7.40;;;4.00;;
68923;SDS011;55961;52.156;20.942;2023-04-25T09:52:18;7.53;;;4.47;;
68923;SDS011;55961;52.156;20.942;2023-04-25T09:54:49;9.00;;;5.10;;
68923;SDS011;55961;52.156;20.942;2023-04-25T09:57:19;7.50;;;4.95;;
68923;SDS011;55961;52.156;20.942;2023-04-25T09:59:52;8.87;;;5.50;;
68923;SDS011;55961;52.156;20.942;2023-04-25T10:02:20;8.48;;;4.70;;
68923;SDS011;55961;52.156;20.942;2023-04-25T10:04:50;8.07;;;5.30;;
68923;SDS011;55961;52.156;20.942;2023-04-25T10:07:18;10.02;;;5.85;;
68923;SDS011;55961;52.156;20.942;2023-04-25T10:09:47;9.60;;;5.57;;
68923;SDS011;55961;52.156;20.942;2023-04-25T10:12:16;9.37;;;6.03;;
68923;SDS011;55961;52.156;20.942;2023-04-25T10:14:42;8.90;;;5.93;;
68923;SDS011;55961;52.156;20.942;2023-04-25T10:17:09;8.38;;;5.68;;
68923;SDS011;55961;52.156;20.942;2023-04-25T10:19:36;10.63;;;6.13;;
68923;SDS011;55961;52.156;20.942;2023-04-25T10:24:48;8.63;;;5.73;;
68923;SDS011;55961;52.156;20.942;2023-04-25T10:27:16;9.35;;;6.05;;
68923;SDS011;55961;52.156;20.942;2023-04-25T10:29:43;11.48;;;6.40;;
68923;SDS011;55961;52.156;20.942;2023-04-25T10:32:09;10.68;;;5.35;;
68923;SDS011;55961;52.156;20.942;2023-04-25T10:34:41;9.63;;;5.67;;
68923;SDS011;55961;52.156;20.942;2023-04-25T10:37:12;11.00;;;5.93;;
68923;SDS011;55961;52.156;20.942;2023-04-25T10:39:41;8.90;;;5.97;;
68923;SDS011;55961;52.156;20.942;2023-04-25T10:42:09;9.27;;;5.60;;
68923;SDS011;55961;52.156;20.942;2023-04-25T10:44:35;8.90;;;5.93;;
68923;SDS011;55961;52.156;20.942;2023-04-25T10:47:05;8.37;;;5.73;;
68923;SDS011;55961;52.156;20.942;2023-04-25T10:49:33;9.13;;;5.70;;
68923;SDS011;55961;52.156;20.942;2023-04-25T10:54:47;8.40;;;5.35;;
68923;SDS011;55961;52.156;20.942;2023-04-25T10:57:57;9.02;;;5.40;;
68923;SDS011;55961;52.156;20.942;2023-04-25T11:00:06;8.23;;;5.00;;
68923;SDS011;55961;52.156;20.942;2023-04-25T11:02:38;9.35;;;5.70;;
68923;SDS011;55961;52.156;20.942;2023-04-25T11:05:10;12.65;;;7.07;;
68923;SDS011;55961;52.156;20.942;2023-04-25T11:07:52;9.38;;;5.32;;
68923;SDS011;55961;52.156;20.942;2023-04-25T11:10:29;10.70;;;5.65;;
68923;SDS011;55961;52.156;20.942;2023-04-25T11:12:59;9.37;;;5.90;;
68923;SDS011;55961;52.156;20.942;2023-04-25T11:15:25;8.77;;;6.40;;
68923;SDS011;55961;52.156;20.942;2023-04-25T11:17:52;17.85;;;9.13;;
68923;SDS011;55961;52.156;20.942;2023-04-25T11:20:18;10.48;;;5.65;;
68923;SDS011;55961;52.156;20.942;2023-04-25T11:22:45;7.80;;;5.60;;
68923;SDS011;55961;52.156;20.942;2023-04-25T11:25:12;6.50;;;3.47;;
68923;SDS011;55961;52.156;20.942;2023-04-25T11:27:52;7.97;;;5.25;;
68923;SDS011;55961;52.156;20.942;2023-04-25T11:30:19;8.57;;;5.25;;
68923;SDS011;55961;52.156;20.942;2023-04-25T11:32:46;7.60;;;4.70;;
68923;SDS011;55961;52.156;20.942;2023-04-25T11:35:12;7.55;;;4.72;;
68923;SDS011;55961;52.156;20.942;2023-04-25T11:37:39;9.30;;;6.37;;
68923;SDS011;55961;52.156;20.942;2023-04-25T11:40:06;8.50;;;5.07;;
68923;SDS011;55961;52.156;20.942;2023-04-25T11:42:34;10.13;;;5.85;;
68923;SDS011;55961;52.156;20.942;2023-04-25T11:45:01;8.60;;;6.60;;
68923;SDS011;55961;52.156;20.942;2023-04-25T11:47:32;9.98;;;6.28;;
68923;SDS011;55961;52.156;20.942;2023-04-25T11:49:59;10.20;;;6.30;;
68923;SDS011;55961;52.156;20.942;2023-04-25T11:52:38;10.68;;;5.88;;
68923;SDS011;55961;52.156;20.942;2023-04-25T11:55:15;10.32;;;6.05;;
68923;SDS011;55961;52.156;20.942;2023-04-25T11:57:42;7.18;;;5.03;;
68923;SDS011;55961;52.156;20.942;2023-04-25T12:02:41;9.37;;;5.70;;
68923;SDS011;55961;52.156;20.942;2023-04-25T12:05:08;7.82;;;5.05;;
68923;SDS011;55961;52.156;20.942;2023-04-25T12:07:35;8.68;;;5.45;;
68923;SDS011;55961;52.156;20.942;2023-04-25T12:10:09;10.07;;;5.38;;
68923;SDS011;55961;52.156;20.942;2023-04-25T12:12:37;8.40;;;4.93;;
68923;SDS011;55961;52.156;20.942;2023-04-25T12:15:10;8.17;;;5.40;;
68923;SDS011;55961;52.156;20.942;2023-04-25T12:17:46;8.65;;;4.75;;
68923;SDS011;55961;52.156;20.942;2023-04-25T12:20:14;11.63;;;5.70;;
68923;SDS011;55961;52.156;20.942;2023-04-25T12:22:42;6.55;;;4.38;;
68923;SDS011;55961;52.156;20.942;2023-04-25T12:25:10;6.63;;;4.13;;
68923;SDS011;55961;52.156;20.942;2023-04-25T12:27:37;7.87;;;5.20;;
68923;SDS011;55961;52.156;20.942;2023-04-25T12:30:07;8.85;;;4.50;;
68923;SDS011;55961;52.156;20.942;2023-04-25T12:32:33;7.60;;;4.30;;
68923;SDS011;55961;52.156;20.942;2023-04-25T12:34:59;8.77;;;4.53;;
68923;SDS011;55961;52.156;20.942;2023-04-25T12:37:25;7.87;;;4.00;;
68923;SDS011;55961;52.156;20.942;2023-04-25T12:39:51;8.07;;;4.68;;
68923;SDS011;55961;52.156;20.942;2023-04-25T12:42:17;12.85;;;4.13;;
68923;SDS011;55961;52.156;20.942;2023-04-25T12:44:43;7.73;;;3.80;;
68923;SDS011;55961;52.156;20.942;2023-04-25T12:47:09;6.88;;;3.92;;
68923;SDS011;55961;52.156;20.942;2023-04-25T12:49:35;8.32;;;4.72;;
68923;SDS011;55961;52.156;20.942;2023-04-25T12:52:01;6.80;;;3.80;;
68923;SDS011;55961;52.156;20.942;2023-04-25T12:54:27;9.13;;;4.63;;
68923;SDS011;55961;52.156;20.942;2023-04-25T12:56:53;6.93;;;4.40;;
68923;SDS011;55961;52.156;20.942;2023-04-25T12:59:20;7.20;;;4.38;;
68923;SDS011;55961;52.156;20.942;2023-04-25T13:01:46;7.65;;;4.63;;
68923;SDS011;55961;52.156;20.942;2023-04-25T13:04:12;9.07;;;5.13;;
68923;SDS011;55961;52.156;20.942;2023-04-25T13:06:38;7.20;;;4.97;;
68923;SDS011;55961;52.156;20.942;2023-04-25T13:09:04;8.18;;;4.55;;
68923;SDS011;55961;52.156;20.942;2023-04-25T13:11:32;8.40;;;4.53;;
68923;SDS011;55961;52.156;20.942;2023-04-25T13:13:57;8.70;;;5.43;;
68923;SDS011;55961;52.156;20.942;2023-04-25T13:16:23;8.87;;;5.57;;
68923;SDS011;55961;52.156;20.942;2023-04-25T13:18:49;7.47;;;5.53;;
68923;SDS011;55961;52.156;20.942;2023-04-25T13:21:15;10.77;;;6.05;;
68923;SDS011;55961;52.156;20.942;2023-04-25T13:23:41;8.63;;;5.60;;
68923;SDS011;55961;52.156;20.942;2023-04-25T13:26:11;9.70;;;5.70;;
68923;SDS011;55961;52.156;20.942;2023-04-25T13:28:37;9.20;;;5.22;;
68923;SDS011;55961;52.156;20.942;2023-04-25T13:31:04;8.70;;;5.70;;
68923;SDS011;55961;52.156;20.942;2023-04-25T13:33:30;7.90;;;5.40;;
68923;SDS011;55961;52.156;20.942;2023-04-25T13:35:56;8.32;;;5.93;;
68923;SDS011;55961;52.156;20.942;2023-04-25T13:38:23;8.57;;;5.63;;
68923;SDS011;55961;52.156;20.942;2023-04-25T13:40:51;9.80;;;6.28;;
68923;SDS011;55961;52.156;20.942;2023-04-25T13:43:21;10.07;;;6.25;;
68923;SDS011;55961;52.156;20.942;2023-04-25T13:45:47;9.70;;;6.07;;
68923;SDS011;55961;52.156;20.942;2023-04-25T13:48:14;9.77;;;6.40;;
68923;SDS011;55961;52.156;20.942;2023-04-25T13:50:40;10.25;;;6.82;;
68923;SDS011;55961;52.156;20.942;2023-04-25T13:53:06;13.63;;;6.25;;
68923;SDS011;55961;52.156;20.942;2023-04-25T13:55:33;8.23;;;5.97;;
68923;SDS011;55961;52.156;20.942;2023-04-25T13:58:02;9.13;;;5.82;;
68923;SDS011;55961;52.156;20.942;2023-04-25T14:00:33;9.70;;;6.05;;
68923;SDS011;55961;52.156;20.942;2023-04-25T14:03:01;8.77;;;5.07;;
68923;SDS011;55961;52.156;20.942;2023-04-25T14:05:30;8.85;;;5.72;;
68923;SDS011;55961;52.156;20.942;2023-04-25T14:07:56;8.90;;;6.03;;
68923;SDS011;55961;52.156;20.942;2023-04-25T14:10:22;9.77;;;5.78;;
68923;SDS011;55961;52.156;20.942;2023-04-25T14:12:48;8.98;;;6.40;;
68923;SDS011;55961;52.156;20.942;2023-04-25T14:15:14;8.57;;;4.70;;
68923;SDS011;55961;52.156;20.942;2023-04-25T14:17:40;9.13;;;4.95;;
68923;SDS011;55961;52.156;20.942;2023-04-25T14:20:06;7.75;;;5.05;;
68923;SDS011;55961;52.156;20.942;2023-04-25T14:22:34;6.85;;;4.90;;
68923;SDS011;55961;52.156;20.942;2023-04-25T14:25:00;8.85;;;5.47;;
68923;SDS011;55961;52.156;20.942;2023-04-25T14:27:26;8.13;;;5.30;;
68923;SDS011;55961;52.156;20.942;2023-04-25T14:29:52;7.53;;;5.35;;
68923;SDS011;55961;52.156;20.942;2023-04-25T14:32:18;7.38;;;5.15;;
68923;SDS011;55961;52.156;20.942;2023-04-25T14:34:44;8.43;;;5.40;;
68923;SDS011;55961;52.156;20.942;2023-04-25T14:37:10;8.48;;;5.43;;
68923;SDS011;55961;52.156;20.942;2023-04-25T14:39:36;9.88;;;5.60;;
68923;SDS011;55961;52.156;20.942;2023-04-25T14:42:02;8.57;;;5.10;;